Terminal Aerodrome Forecast
Issued by NWS Brownsville, TX

Current Version | Previous Version | Text Only | Print | Product List | Glossary Off
Versions: 1 2 3 4 5 6 7 8 9 10 11 12 13 14 15 16 17 18 19

000
FTUS44 KBRO 221403 AAA
TAFMFE
TAF AMD
KMFE 221403Z 2214/2312 30004KT P6SM SKC
     FM221600 33028G40KT P6SM SKC
     FM230000 33015G22KT P6SM SKC
     FM230200 34008KT P6SM SKC=

USA.gov is the U.S. government's official web portal to all federal, state and local government web resources and services.